createdAt,value
2023-04-09T00:02:21.299Z,3.92
2023-04-09T00:04:48.020Z,3.84
2023-04-09T00:07:14.784Z,3.95
2023-04-09T00:09:41.258Z,3.96
2023-04-09T00:12:07.737Z,3.87
2023-04-09T00:14:34.249Z,3.97
2023-04-09T00:17:00.773Z,3.97
2023-04-09T00:19:28.082Z,3.94
2023-04-09T00:21:54.586Z,3.79
2023-04-09T00:24:21.015Z,3.72
2023-04-09T00:26:49.865Z,3.73
2023-04-09T00:29:16.556Z,3.75
2023-04-09T00:31:43.057Z,3.65
2023-04-09T00:34:09.593Z,3.67
2023-04-09T00:36:36.222Z,3.71
2023-04-09T00:39:02.737Z,3.77
2023-04-09T00:41:31.138Z,3.80
2023-04-09T00:43:57.710Z,3.84
2023-04-09T00:46:24.534Z,3.85
2023-04-09T00:48:51.267Z,3.83
2023-04-09T00:51:17.963Z,3.93
2023-04-09T00:53:44.667Z,3.82
2023-04-09T00:56:11.161Z,3.86
2023-04-09T00:58:37.672Z,3.99
2023-04-09T01:01:04.210Z,3.96
2023-04-09T01:03:31.347Z,4.06
2023-04-09T01:05:57.943Z,4.05
2023-04-09T01:08:24.708Z,4.03
2023-04-09T01:10:51.306Z,3.99
2023-04-09T01:13:17.906Z,3.82
2023-04-09T01:15:44.973Z,3.79
2023-04-09T01:18:12.816Z,3.76
2023-04-09T01:20:39.703Z,3.79
2023-04-09T01:23:06.639Z,3.90
2023-04-09T01:25:33.361Z,3.88
2023-04-09T01:28:00.051Z,3.84
2023-04-09T01:30:26.965Z,3.85
2023-04-09T01:32:54.969Z,3.72
2023-04-09T01:35:22.177Z,3.73
2023-04-09T01:37:50.030Z,3.77
2023-04-09T01:40:18.013Z,3.93
2023-04-09T01:42:46.079Z,3.88
2023-04-09T01:45:15.230Z,3.88
2023-04-09T01:47:41.728Z,3.92
2023-04-09T01:50:10.725Z,3.89
2023-04-09T01:52:37.237Z,3.82
2023-04-09T01:55:04.972Z,3.78
2023-04-09T01:57:32.286Z,3.80
2023-04-09T01:59:58.713Z,3.80
2023-04-09T02:02:25.817Z,3.85
2023-04-09T02:04:52.300Z,3.76
2023-04-09T02:07:18.867Z,3.91
2023-04-09T02:09:46.044Z,3.99
2023-04-09T02:12:12.591Z,3.91
2023-04-09T02:14:39.382Z,4.01
2023-04-09T02:17:06.039Z,4.13
2023-04-09T02:19:33.293Z,4.09
2023-04-09T02:22:00.567Z,3.87
2023-04-09T02:24:28.037Z,3.87
2023-04-09T02:26:54.868Z,3.80
2023-04-09T02:29:21.334Z,3.89
2023-04-09T02:31:47.839Z,3.83
2023-04-09T02:34:14.583Z,3.88
2023-04-09T02:36:41.011Z,3.99
2023-04-09T02:39:07.517Z,3.83
2023-04-09T02:41:34.229Z,3.64
2023-04-09T02:44:01.026Z,3.49
2023-04-09T02:46:27.530Z,3.41
2023-04-09T02:48:54.372Z,3.29
2023-04-09T02:51:21.210Z,3.39
2023-04-09T02:53:47.690Z,3.38
2023-04-09T02:56:16.511Z,3.41
2023-04-09T02:58:43.120Z,3.34
2023-04-09T03:01:10.622Z,3.32
2023-04-09T03:03:37.236Z,3.29
2023-04-09T03:06:03.781Z,3.20
2023-04-09T03:08:30.358Z,3.22
2023-04-09T03:10:56.901Z,3.35
2023-04-09T03:13:24.699Z,3.34
2023-04-09T03:15:51.439Z,3.48
2023-04-09T03:18:18.248Z,3.36
2023-04-09T03:20:45.440Z,3.14
2023-04-09T03:23:11.946Z,3.14
2023-04-09T03:25:40.781Z,3.23
2023-04-09T03:28:09.508Z,3.16
2023-04-09T03:30:35.957Z,3.05
2023-04-09T03:33:02.496Z,3.04
2023-04-09T03:35:29.068Z,3.06
2023-04-09T03:37:55.770Z,3.22
2023-04-09T03:40:22.272Z,3.19
2023-04-09T03:42:48.823Z,3.01
2023-04-09T03:45:16.892Z,2.84
2023-04-09T03:47:44.554Z,2.89
2023-04-09T03:50:11.520Z,2.85
2023-04-09T03:52:39.531Z,2.78
2023-04-09T03:55:06.162Z,2.79
2023-04-09T03:57:32.580Z,2.80
2023-04-09T03:59:59.440Z,2.97
2023-04-09T04:02:26.425Z,3.09
2023-04-09T04:04:53.087Z,3.00
2023-04-09T04:07:19.921Z,3.02
2023-04-09T04:09:49.442Z,2.97
2023-04-09T04:12:15.925Z,2.97
2023-04-09T04:14:42.389Z,3.01
2023-04-09T04:17:08.988Z,3.06
2023-04-09T04:19:35.414Z,3.10
2023-04-09T04:22:01.897Z,2.81
2023-04-09T04:24:28.836Z,2.95
2023-04-09T04:26:55.329Z,3.17
2023-04-09T04:29:21.853Z,3.06
2023-04-09T04:31:48.306Z,3.10
2023-04-09T04:34:17.035Z,3.23
2023-04-09T04:36:43.486Z,3.26
2023-04-09T04:39:10.002Z,3.44
2023-04-09T04:41:36.750Z,3.50
2023-04-09T04:44:03.242Z,3.51
2023-04-09T04:46:29.680Z,3.43
2023-04-09T04:48:56.160Z,3.34
2023-04-09T04:51:22.554Z,3.40
2023-04-09T04:53:49.439Z,3.36
2023-04-09T04:56:16.051Z,3.23
2023-04-09T04:58:42.550Z,3.23
2023-04-09T05:01:09.086Z,3.46
2023-04-09T05:03:35.845Z,3.56
2023-04-09T05:06:02.429Z,3.39
2023-04-09T05:08:28.877Z,3.34
2023-04-09T05:10:55.442Z,3.41
2023-04-09T05:13:21.885Z,3.44
2023-04-09T05:15:48.378Z,3.17
2023-04-09T05:18:15.158Z,3.28
2023-04-09T05:20:42.362Z,3.37
2023-04-09T05:23:09.846Z,3.56
2023-04-09T05:25:36.456Z,3.41
2023-04-09T05:28:03.649Z,3.49
2023-04-09T05:30:30.146Z,3.54
2023-04-09T05:32:56.818Z,3.35
2023-04-09T05:35:24.183Z,3.26
2023-04-09T05:37:50.657Z,3.33
2023-04-09T05:40:19.613Z,3.49
2023-04-09T05:42:46.105Z,3.57
2023-04-09T05:45:13.580Z,3.63
2023-04-09T05:47:40.498Z,3.59
2023-04-09T05:50:07.310Z,3.69
2023-04-09T05:52:33.930Z,3.70
2023-04-09T05:55:00.644Z,3.67
2023-04-09T05:57:27.269Z,3.70
2023-04-09T05:59:53.747Z,3.67
2023-04-09T06:02:20.443Z,3.61
2023-04-09T06:04:47.161Z,3.67
2023-04-09T06:07:13.662Z,3.82
2023-04-09T06:09:46.385Z,3.90
2023-04-09T06:12:13.893Z,3.96
2023-04-09T06:14:40.991Z,4.01
2023-04-09T06:17:07.526Z,3.91
2023-04-09T06:19:33.966Z,3.92
2023-04-09T06:22:00.458Z,4.05
2023-04-09T06:24:27.095Z,3.84
2023-04-09T06:26:54.360Z,3.85
2023-04-09T06:29:24.427Z,3.83
2023-04-09T06:31:51.030Z,3.71
2023-04-09T06:34:17.574Z,3.70
2023-04-09T06:36:44.006Z,3.69
2023-04-09T06:39:11.688Z,3.79
2023-04-09T06:41:38.107Z,4.01
2023-04-09T06:44:04.668Z,4.13
2023-04-09T06:46:31.397Z,4.39
2023-04-09T06:48:59.517Z,4.32
2023-04-09T06:51:26.156Z,4.05
2023-04-09T06:53:52.922Z,4.29
2023-04-09T06:56:19.749Z,4.16
2023-04-09T06:58:46.661Z,4.19
2023-04-09T07:01:13.158Z,4.59
2023-04-09T07:03:40.089Z,4.64
2023-04-09T07:06:06.840Z,4.73
2023-04-09T07:08:33.355Z,4.35
2023-04-09T07:10:59.888Z,4.13
2023-04-09T07:15:58.289Z,4.79
2023-04-09T07:18:24.760Z,4.91
2023-04-09T07:20:51.282Z,4.91
2023-04-09T07:23:18.030Z,4.50
2023-04-09T07:25:46.917Z,4.69
2023-04-09T07:28:13.392Z,4.40
2023-04-09T07:30:40.226Z,4.39
2023-04-09T07:33:06.791Z,4.45
2023-04-09T07:35:38.121Z,4.02
2023-04-09T07:38:06.827Z,4.27
2023-04-09T07:40:33.705Z,4.31
2023-04-09T07:43:00.704Z,4.31
2023-04-09T07:45:27.308Z,4.43
2023-04-09T07:47:54.362Z,4.46
2023-04-09T07:50:20.939Z,4.63
2023-04-09T07:52:47.902Z,4.57
2023-04-09T07:55:16.296Z,4.67
2023-04-09T07:57:43.754Z,4.54
2023-04-09T08:00:10.503Z,4.78
2023-04-09T08:02:37.645Z,4.84
2023-04-09T08:05:05.359Z,4.79
2023-04-09T08:07:31.966Z,4.81
2023-04-09T08:09:58.383Z,4.56
2023-04-09T08:12:25.177Z,4.81
2023-04-09T08:14:51.641Z,5.02
2023-04-09T08:17:18.482Z,4.88
2023-04-09T08:19:44.931Z,4.89
2023-04-09T08:22:11.361Z,5.02
2023-04-09T08:24:40.254Z,5.08
2023-04-09T08:27:06.668Z,5.30
2023-04-09T08:29:33.492Z,5.31
2023-04-09T08:32:02.387Z,5.02
2023-04-09T08:34:28.830Z,5.02
2023-04-09T08:36:55.596Z,5.28
2023-04-09T08:39:22.295Z,5.52
2023-04-09T08:41:48.808Z,5.86
2023-04-09T08:44:15.434Z,5.99
2023-04-09T08:46:41.902Z,5.91
2023-04-09T08:49:08.345Z,5.91
2023-04-09T08:51:34.872Z,5.42
2023-04-09T08:54:04.043Z,5.37
2023-04-09T08:56:31.427Z,5.25
2023-04-09T08:58:57.929Z,5.12
2023-04-09T09:01:24.643Z,5.21
2023-04-09T09:03:51.294Z,5.37
2023-04-09T09:06:17.777Z,5.37
2023-04-09T09:08:44.289Z,5.49
2023-04-09T09:11:10.740Z,5.30
2023-04-09T09:13:37.470Z,4.94
2023-04-09T09:16:04.054Z,4.78
2023-04-09T09:18:30.582Z,4.83
2023-04-09T09:20:57.000Z,4.95
2023-04-09T09:23:23.676Z,5.10
2023-04-09T09:25:50.127Z,5.53
2023-04-09T09:28:16.782Z,5.83
2023-04-09T09:30:43.371Z,5.77
2023-04-09T09:33:09.930Z,5.58
2023-04-09T09:35:36.978Z,5.36
2023-04-09T09:38:03.443Z,5.31
2023-04-09T09:40:30.537Z,5.51
2023-04-09T09:42:57.031Z,5.62
2023-04-09T09:45:23.472Z,6.00
2023-04-09T09:47:49.983Z,5.76
2023-04-09T09:50:17.297Z,6.10
2023-04-09T09:52:44.103Z,6.18
2023-04-09T09:55:10.544Z,5.99
2023-04-09T09:57:37.734Z,5.79
2023-04-09T10:00:04.481Z,5.62
2023-04-09T10:02:31.477Z,5.92
2023-04-09T10:04:58.179Z,5.73
2023-04-09T10:07:24.693Z,6.05
2023-04-09T10:09:51.135Z,6.51
2023-04-09T10:12:17.616Z,6.35
2023-04-09T10:14:45.045Z,6.45
2023-04-09T10:17:12.278Z,6.33
2023-04-09T10:19:39.023Z,6.30
2023-04-09T10:22:05.506Z,6.44
2023-04-09T10:24:32.105Z,6.75
2023-04-09T10:27:00.916Z,6.93
2023-04-09T10:29:27.363Z,6.86
2023-04-09T10:31:53.802Z,6.75
2023-04-09T10:34:23.368Z,6.77
2023-04-09T10:36:49.974Z,7.03
2023-04-09T10:39:17.568Z,7.14
2023-04-09T10:41:44.083Z,7.11
2023-04-09T10:44:10.816Z,6.91
2023-04-09T10:46:37.687Z,7.05
2023-04-09T10:49:04.622Z,7.27
2023-04-09T10:51:31.221Z,7.44
2023-04-09T10:54:02.046Z,7.39
2023-04-09T10:56:28.481Z,7.20
2023-04-09T10:58:55.184Z,7.04
2023-04-09T11:01:21.732Z,7.38
2023-04-09T11:03:48.287Z,7.02
2023-04-09T11:06:15.713Z,6.86
2023-04-09T11:08:42.152Z,6.60
2023-04-09T11:11:08.654Z,6.30
2023-04-09T11:13:35.157Z,5.91
2023-04-09T11:16:01.689Z,6.02
2023-04-09T11:18:28.298Z,6.52
2023-04-09T11:20:54.840Z,6.91
2023-04-09T11:23:21.332Z,7.07
2023-04-09T11:25:48.594Z,7.15
2023-04-09T11:28:15.110Z,7.36
2023-04-09T11:30:41.573Z,7.28
2023-04-09T11:33:08.023Z,7.17
2023-04-09T11:35:34.480Z,7.43
2023-04-09T11:38:00.920Z,7.42
2023-04-09T11:40:27.408Z,6.88
2023-04-09T11:42:54.491Z,7.03
2023-04-09T11:45:21.913Z,7.36
2023-04-09T11:47:48.545Z,7.67
2023-04-09T11:50:15.250Z,7.69
2023-04-09T11:52:41.791Z,7.66
2023-04-09T11:55:08.508Z,7.57
2023-04-09T11:57:35.134Z,7.67
2023-04-09T12:00:05.060Z,7.82
2023-04-09T12:02:31.977Z,7.88
2023-04-09T12:04:59.404Z,8.13
2023-04-09T12:07:28.369Z,7.96
2023-04-09T12:09:54.848Z,8.07
2023-04-09T12:12:21.302Z,8.14
2023-04-09T12:14:47.954Z,8.27
2023-04-09T12:17:14.467Z,8.51
2023-04-09T12:19:40.921Z,8.59
2023-04-09T12:22:07.458Z,8.51
2023-04-09T12:24:33.907Z,8.50
2023-04-09T12:27:00.526Z,8.33
2023-04-09T12:29:27.158Z,8.27
2023-04-09T12:31:53.660Z,8.29
2023-04-09T12:34:20.678Z,8.14
2023-04-09T12:36:48.740Z,8.04
2023-04-09T12:39:15.329Z,7.93
2023-04-09T12:41:41.787Z,7.60
2023-04-09T12:44:08.181Z,7.81
2023-04-09T12:46:34.707Z,7.96
2023-04-09T12:49:02.241Z,7.79
2023-04-09T12:51:30.189Z,7.70
2023-04-09T12:53:57.204Z,7.72
2023-04-09T12:56:23.590Z,7.65
2023-04-09T12:58:50.090Z,7.69
2023-04-09T13:01:16.754Z,7.78
2023-04-09T13:03:43.856Z,7.83
2023-04-09T13:06:10.662Z,7.77
2023-04-09T13:08:37.625Z,7.92
2023-04-09T13:11:04.432Z,7.75
2023-04-09T13:13:30.961Z,7.74
2023-04-09T13:15:57.665Z,7.75
2023-04-09T13:18:24.131Z,7.79
2023-04-09T13:20:50.637Z,7.89
2023-04-09T13:23:17.615Z,7.95
2023-04-09T13:25:44.097Z,7.97
2023-04-09T13:28:10.535Z,8.04
2023-04-09T13:30:37.763Z,7.88
2023-04-09T13:33:04.440Z,7.99
2023-04-09T13:35:32.343Z,8.06
2023-04-09T13:37:59.211Z,8.37
2023-04-09T13:40:25.981Z,8.69
2023-04-09T13:42:52.441Z,8.95
2023-04-09T13:45:19.927Z,9.07
2023-04-09T13:47:46.395Z,9.25
2023-04-09T13:50:12.861Z,9.50
2023-04-09T13:52:39.579Z,9.56
2023-04-09T13:55:06.023Z,9.65
2023-04-09T13:57:32.551Z,9.80
2023-04-09T13:59:58.999Z,9.86
2023-04-09T14:02:25.951Z,10.00
2023-04-09T14:04:52.519Z,10.12
2023-04-09T14:07:19.430Z,10.22
2023-04-09T14:09:45.903Z,10.23
2023-04-09T14:12:12.832Z,10.29
2023-04-09T14:14:39.339Z,10.11
2023-04-09T14:17:05.804Z,9.79
2023-04-09T14:19:32.558Z,9.90
2023-04-09T14:22:00.271Z,9.64
2023-04-09T14:24:27.164Z,9.33
2023-04-09T14:26:53.767Z,9.40
2023-04-09T14:29:20.259Z,9.54
2023-04-09T14:31:46.951Z,9.30
2023-04-09T14:34:13.574Z,9.34
2023-04-09T14:36:40.049Z,9.28
2023-04-09T14:39:07.078Z,8.98
2023-04-09T14:41:33.609Z,8.88
2023-04-09T14:44:00.144Z,8.86
2023-04-09T14:46:26.713Z,8.79
2023-04-09T14:48:53.458Z,8.79
2023-04-09T14:51:20.251Z,8.63
2023-04-09T14:53:47.808Z,8.50
2023-04-09T14:56:14.246Z,8.26
2023-04-09T14:58:40.723Z,8.31
2023-04-09T15:01:07.296Z,8.21
2023-04-09T15:03:34.246Z,8.16
2023-04-09T15:06:01.190Z,8.16
2023-04-09T15:08:28.831Z,8.14
2023-04-09T15:10:55.273Z,8.18
2023-04-09T15:13:21.748Z,8.22
2023-04-09T15:15:48.516Z,8.26
2023-04-09T15:18:15.235Z,8.47
2023-04-09T15:20:41.956Z,8.35
2023-04-09T15:23:08.411Z,8.21
2023-04-09T15:25:34.872Z,7.95
2023-04-09T15:28:01.305Z,7.79
2023-04-09T15:30:27.843Z,7.44
2023-04-09T15:32:54.330Z,7.37
2023-04-09T15:35:20.851Z,7.35
2023-04-09T15:37:47.965Z,7.45
2023-04-09T15:40:14.382Z,7.43
2023-04-09T15:42:41.171Z,6.80
2023-04-09T15:45:07.701Z,6.93
2023-04-09T15:47:34.385Z,7.02
2023-04-09T15:50:01.117Z,6.96
2023-04-09T15:52:27.614Z,7.01
2023-04-09T15:54:54.296Z,7.08
2023-04-09T15:57:20.838Z,7.19
2023-04-09T15:59:47.353Z,6.89
2023-04-09T16:02:14.382Z,7.09
2023-04-09T16:04:41.107Z,7.12
2023-04-09T16:07:07.656Z,7.04
2023-04-09T16:09:34.124Z,7.14
2023-04-09T16:12:00.853Z,7.49
2023-04-09T16:14:27.283Z,7.26
2023-04-09T16:16:54.069Z,7.21
2023-04-09T16:19:20.633Z,7.38
2023-04-09T16:21:47.100Z,7.17
2023-04-09T16:24:13.539Z,7.37
2023-04-09T16:26:40.351Z,7.44
2023-04-09T16:29:06.828Z,7.35
2023-04-09T16:31:33.488Z,7.31
2023-04-09T16:34:00.167Z,6.94
2023-04-09T16:36:27.864Z,6.89
2023-04-09T16:38:54.975Z,6.86
2023-04-09T16:41:21.866Z,6.94
2023-04-09T16:43:48.322Z,6.96
2023-04-09T16:46:14.870Z,6.96
2023-04-09T16:48:41.391Z,6.94
2023-04-09T16:51:08.005Z,7.11
2023-04-09T16:53:37.644Z,7.08
2023-04-09T16:56:05.799Z,7.07
2023-04-09T16:58:32.468Z,6.98
2023-04-09T17:00:59.032Z,6.55
2023-04-09T17:03:25.511Z,6.45
2023-04-09T17:05:52.238Z,6.62
2023-04-09T17:08:18.881Z,6.79
2023-04-09T17:10:45.311Z,6.87
2023-04-09T17:13:11.866Z,6.76
2023-04-09T17:15:38.378Z,6.93
2023-04-09T17:18:04.920Z,7.05
2023-04-09T17:20:32.462Z,6.98
2023-04-09T17:22:58.923Z,6.81
2023-04-09T17:25:25.453Z,6.84
2023-04-09T17:27:51.928Z,6.81
2023-04-09T17:30:18.415Z,7.02
2023-04-09T17:32:44.977Z,7.23
2023-04-09T17:35:11.449Z,7.20
2023-04-09T17:37:38.001Z,7.13
2023-04-09T17:40:04.862Z,7.06
2023-04-09T17:42:31.232Z,6.94
2023-04-09T17:44:57.651Z,7.05
2023-04-09T17:47:24.432Z,6.92
2023-04-09T17:49:51.194Z,6.99
2023-04-09T17:52:17.735Z,6.77
2023-04-09T17:54:45.511Z,6.68
2023-04-09T17:57:13.050Z,6.87
2023-04-09T17:59:39.480Z,6.78
2023-04-09T18:02:06.244Z,6.72
2023-04-09T18:04:33.230Z,6.84
2023-04-09T18:06:59.988Z,6.81
2023-04-09T18:09:26.468Z,6.86
2023-04-09T18:11:52.998Z,6.74
2023-04-09T18:14:21.616Z,6.82
2023-04-09T18:16:48.076Z,6.62
2023-04-09T18:19:14.900Z,6.54
2023-04-09T18:21:45.727Z,6.67
2023-04-09T18:24:12.278Z,6.60
2023-04-09T18:26:38.838Z,6.58
2023-04-09T18:29:05.393Z,6.68
2023-04-09T18:31:34.831Z,6.61
2023-04-09T18:34:01.533Z,6.59
2023-04-09T18:36:28.152Z,6.33
2023-04-09T18:38:54.734Z,6.16
2023-04-09T18:41:21.412Z,6.08
2023-04-09T18:43:47.975Z,6.21
2023-04-09T18:46:14.502Z,6.29
2023-04-09T18:48:41.253Z,6.37
2023-04-09T18:51:08.155Z,6.29
2023-04-09T18:53:34.709Z,6.40
2023-04-09T18:56:01.262Z,6.17
2023-04-09T18:58:27.752Z,5.80
2023-04-09T19:00:54.281Z,5.97
2023-04-09T19:03:21.063Z,6.21
2023-04-09T19:05:47.703Z,6.09
2023-04-09T19:08:14.140Z,6.32
2023-04-09T19:10:40.917Z,6.24
2023-04-09T19:13:07.827Z,6.29
2023-04-09T19:15:35.093Z,6.21
2023-04-09T19:18:01.573Z,5.95
2023-04-09T19:20:28.328Z,6.09
2023-04-09T19:22:55.049Z,6.16
2023-04-09T19:25:21.477Z,5.93
2023-04-09T19:27:48.285Z,6.05
2023-04-09T19:30:15.179Z,6.03
2023-04-09T19:32:41.638Z,5.87
2023-04-09T19:35:08.082Z,5.99
2023-04-09T19:37:35.959Z,5.97
2023-04-09T19:40:02.507Z,6.12
2023-04-09T19:42:28.941Z,6.23
2023-04-09T19:44:55.664Z,6.23
2023-04-09T19:47:22.432Z,6.01
2023-04-09T19:49:49.038Z,6.20
2023-04-09T19:52:15.627Z,6.35
2023-04-09T19:54:42.374Z,6.42
2023-04-09T19:57:10.351Z,6.21
2023-04-09T19:59:38.470Z,6.29
2023-04-09T20:02:05.055Z,6.17
2023-04-09T20:04:32.136Z,6.14
2023-04-09T20:06:59.624Z,5.97
2023-04-09T20:09:26.080Z,5.88
2023-04-09T20:11:52.560Z,5.98
2023-04-09T20:14:19.272Z,5.86
2023-04-09T20:16:46.456Z,5.71
2023-04-09T20:19:12.884Z,5.79
2023-04-09T20:21:40.115Z,5.87
2023-04-09T20:24:06.539Z,5.81
2023-04-09T20:26:33.143Z,5.95
2023-04-09T20:28:59.669Z,5.96
2023-04-09T20:31:26.571Z,5.97
2023-04-09T20:33:53.134Z,5.83
2023-04-09T20:36:19.677Z,5.85
2023-04-09T20:38:46.117Z,5.71
2023-04-09T20:41:12.668Z,5.68
2023-04-09T20:43:39.096Z,5.63
2023-04-09T20:46:08.017Z,5.57
2023-04-09T20:48:34.514Z,5.64
2023-04-09T20:51:00.951Z,5.72
2023-04-09T20:53:27.536Z,5.60
2023-04-09T20:55:53.989Z,5.34
2023-04-09T20:58:20.389Z,5.35
2023-04-09T21:00:47.030Z,5.50
2023-04-09T21:03:13.675Z,5.57
2023-04-09T21:05:41.511Z,5.36
2023-04-09T21:08:08.697Z,5.46
2023-04-09T21:10:35.390Z,5.54
2023-04-09T21:13:01.847Z,5.53
2023-04-09T21:15:28.558Z,5.46
2023-04-09T21:17:55.081Z,5.49
2023-04-09T21:20:21.982Z,5.59
2023-04-09T21:22:51.487Z,5.55
2023-04-09T21:25:18.001Z,5.64
2023-04-09T21:27:44.521Z,5.27
2023-04-09T21:30:10.987Z,5.37
2023-04-09T21:32:37.479Z,5.37
2023-04-09T21:35:04.501Z,5.51
2023-04-09T21:37:30.870Z,5.55
2023-04-09T21:39:57.322Z,5.55
2023-04-09T21:42:24.293Z,5.52
2023-04-09T21:44:50.737Z,5.20
2023-04-09T21:47:17.200Z,5.07
2023-04-09T21:49:43.705Z,5.27
2023-04-09T21:52:10.387Z,5.34
2023-04-09T21:54:36.821Z,5.36
2023-04-09T21:57:03.403Z,5.37
2023-04-09T21:59:29.813Z,5.24
2023-04-09T22:01:56.317Z,5.11
2023-04-09T22:04:22.919Z,5.19
2023-04-09T22:06:49.421Z,5.17
2023-04-09T22:09:20.017Z,5.27
2023-04-09T22:11:46.728Z,5.13
2023-04-09T22:14:13.221Z,5.25
2023-04-09T22:16:39.809Z,5.29
2023-04-09T22:19:06.211Z,5.35
2023-04-09T22:21:32.636Z,5.36
2023-04-09T22:23:59.080Z,5.29
2023-04-09T22:26:25.669Z,5.41
2023-04-09T22:28:52.460Z,5.46
2023-04-09T22:31:22.477Z,5.48
2023-04-09T22:33:48.885Z,5.31
2023-04-09T22:36:15.460Z,5.13
2023-04-09T22:38:41.963Z,5.12
2023-04-09T22:41:08.367Z,5.14
2023-04-09T22:43:34.820Z,5.15
2023-04-09T22:46:01.427Z,5.25
2023-04-09T22:48:28.198Z,5.34
2023-04-09T22:50:56.075Z,5.03
2023-04-09T22:53:22.547Z,5.14
2023-04-09T22:55:51.858Z,5.26
2023-04-09T22:58:18.590Z,4.82
2023-04-09T23:00:48.105Z,4.87
2023-04-09T23:03:15.366Z,4.79
2023-04-09T23:05:42.480Z,4.85
2023-04-09T23:08:08.979Z,4.89
2023-04-09T23:10:35.469Z,4.97
2023-04-09T23:13:02.001Z,5.04
2023-04-09T23:15:28.597Z,5.20
2023-04-09T23:17:55.542Z,5.04
2023-04-09T23:20:22.185Z,5.08
2023-04-09T23:22:48.586Z,5.09
2023-04-09T23:25:15.436Z,4.94
2023-04-09T23:27:42.384Z,4.79
2023-04-09T23:30:09.477Z,4.93
2023-04-09T23:32:35.941Z,4.88
2023-04-09T23:35:02.517Z,5.00
2023-04-09T23:37:29.079Z,5.02
2023-04-09T23:39:55.604Z,4.83
2023-04-09T23:42:22.352Z,4.87
2023-04-09T23:44:49.078Z,4.66
2023-04-09T23:47:15.640Z,4.85
2023-04-09T23:49:42.152Z,4.88
2023-04-09T23:52:09.595Z,4.66
2023-04-09T23:54:36.255Z,4.81
2023-04-09T23:57:03.271Z,4.93
2023-04-09T23:59:29.865Z,5.04
